sensor_id;sensor_type;location;lat;lon;timestamp;P1;durP1;ratioP1;P2;durP2;ratioP2
20525;SDS011;10421;49.142;9.232;2022-08-21T00:00:26;3.10;;;2.80;;
20525;SDS011;10421;49.142;9.232;2022-08-21T00:02:58;2.97;;;2.33;;
20525;SDS011;10421;49.142;9.232;2022-08-21T00:05:30;3.13;;;2.13;;
20525;SDS011;10421;49.142;9.232;2022-08-21T00:07:58;3.70;;;2.60;;
20525;SDS011;10421;49.142;9.232;2022-08-21T00:10:25;4.33;;;1.87;;
20525;SDS011;10421;49.142;9.232;2022-08-21T00:12:52;2.87;;;2.30;;
20525;SDS011;10421;49.142;9.232;2022-08-21T00:15:20;3.37;;;2.37;;
20525;SDS011;10421;49.142;9.232;2022-08-21T00:17:48;2.93;;;2.33;;
20525;SDS011;10421;49.142;9.232;2022-08-21T00:20:17;3.50;;;2.77;;
20525;SDS011;10421;49.142;9.232;2022-08-21T00:22:44;3.13;;;2.10;;
20525;SDS011;10421;49.142;9.232;2022-08-21T00:25:11;4.00;;;2.70;;
20525;SDS011;10421;49.142;9.232;2022-08-21T00:27:39;2.50;;;2.07;;
20525;SDS011;10421;49.142;9.232;2022-08-21T00:30:07;2.80;;;2.27;;
20525;SDS011;10421;49.142;9.232;2022-08-21T00:32:36;2.60;;;2.40;;
20525;SDS011;10421;49.142;9.232;2022-08-21T00:35:05;2.73;;;2.40;;
20525;SDS011;10421;49.142;9.232;2022-08-21T00:37:34;3.70;;;2.47;;
20525;SDS011;10421;49.142;9.232;2022-08-21T00:40:02;2.50;;;2.30;;
20525;SDS011;10421;49.142;9.232;2022-08-21T00:42:29;4.03;;;2.27;;
20525;SDS011;10421;49.142;9.232;2022-08-21T00:44:56;3.67;;;2.40;;
20525;SDS011;10421;49.142;9.232;2022-08-21T00:47:22;3.00;;;2.43;;
20525;SDS011;10421;49.142;9.232;2022-08-21T00:49:49;4.13;;;3.50;;
20525;SDS011;10421;49.142;9.232;2022-08-21T00:52:17;5.23;;;2.63;;
20525;SDS011;10421;49.142;9.232;2022-08-21T00:54:48;7.13;;;3.00;;
20525;SDS011;10421;49.142;9.232;2022-08-21T00:57:17;3.10;;;2.80;;
20525;SDS011;10421;49.142;9.232;2022-08-21T00:59:50;2.57;;;2.17;;
20525;SDS011;10421;49.142;9.232;2022-08-21T01:02:19;2.73;;;2.23;;
20525;SDS011;10421;49.142;9.232;2022-08-21T01:04:48;4.43;;;2.53;;
20525;SDS011;10421;49.142;9.232;2022-08-21T01:07:15;3.33;;;2.60;;
20525;SDS011;10421;49.142;9.232;2022-08-21T01:09:42;5.40;;;2.37;;
20525;SDS011;10421;49.142;9.232;2022-08-21T01:12:13;2.77;;;2.37;;
20525;SDS011;10421;49.142;9.232;2022-08-21T01:14:40;6.60;;;2.63;;
20525;SDS011;10421;49.142;9.232;2022-08-21T01:17:08;3.80;;;2.80;;
20525;SDS011;10421;49.142;9.232;2022-08-21T01:19:37;7.30;;;3.10;;
20525;SDS011;10421;49.142;9.232;2022-08-21T01:22:05;4.40;;;2.30;;
20525;SDS011;10421;49.142;9.232;2022-08-21T01:24:32;3.40;;;2.57;;
20525;SDS011;10421;49.142;9.232;2022-08-21T01:26:59;4.63;;;2.10;;
20525;SDS011;10421;49.142;9.232;2022-08-21T01:29:29;3.30;;;2.07;;
20525;SDS011;10421;49.142;9.232;2022-08-21T01:32:03;5.40;;;2.27;;
20525;SDS011;10421;49.142;9.232;2022-08-21T01:34:32;3.40;;;2.40;;
20525;SDS011;10421;49.142;9.232;2022-08-21T01:36:59;3.10;;;2.30;;
20525;SDS011;10421;49.142;9.232;2022-08-21T01:39:27;5.63;;;2.73;;
20525;SDS011;10421;49.142;9.232;2022-08-21T01:41:54;2.60;;;2.40;;
20525;SDS011;10421;49.142;9.232;2022-08-21T01:44:21;2.73;;;2.00;;
20525;SDS011;10421;49.142;9.232;2022-08-21T01:46:48;4.10;;;3.03;;
20525;SDS011;10421;49.142;9.232;2022-08-21T01:49:15;3.30;;;2.53;;
20525;SDS011;10421;49.142;9.232;2022-08-21T01:51:41;6.10;;;3.30;;
20525;SDS011;10421;49.142;9.232;2022-08-21T01:54:08;4.03;;;2.80;;
20525;SDS011;10421;49.142;9.232;2022-08-21T01:56:37;2.70;;;2.40;;
20525;SDS011;10421;49.142;9.232;2022-08-21T01:59:05;2.87;;;2.43;;
20525;SDS011;10421;49.142;9.232;2022-08-21T02:01:32;4.73;;;2.70;;
20525;SDS011;10421;49.142;9.232;2022-08-21T02:03:59;3.00;;;2.50;;
20525;SDS011;10421;49.142;9.232;2022-08-21T02:06:26;3.30;;;2.87;;
20525;SDS011;10421;49.142;9.232;2022-08-21T02:08:53;8.27;;;2.57;;
20525;SDS011;10421;49.142;9.232;2022-08-21T02:11:20;2.70;;;2.30;;
20525;SDS011;10421;49.142;9.232;2022-08-21T02:13:48;3.43;;;2.43;;
20525;SDS011;10421;49.142;9.232;2022-08-21T02:16:15;4.23;;;2.50;;
20525;SDS011;10421;49.142;9.232;2022-08-21T02:18:42;2.87;;;2.60;;
20525;SDS011;10421;49.142;9.232;2022-08-21T02:21:08;3.50;;;3.20;;
20525;SDS011;10421;49.142;9.232;2022-08-21T02:23:35;5.73;;;2.73;;
20525;SDS011;10421;49.142;9.232;2022-08-21T02:26:03;3.40;;;2.37;;
20525;SDS011;10421;49.142;9.232;2022-08-21T02:28:32;6.03;;;2.60;;
20525;SDS011;10421;49.142;9.232;2022-08-21T02:31:01;3.93;;;2.90;;
20525;SDS011;10421;49.142;9.232;2022-08-21T02:33:28;3.00;;;2.53;;
20525;SDS011;10421;49.142;9.232;2022-08-21T02:35:55;4.67;;;2.50;;
20525;SDS011;10421;49.142;9.232;2022-08-21T02:38:23;2.93;;;2.30;;
20525;SDS011;10421;49.142;9.232;2022-08-21T02:40:51;3.60;;;2.60;;
20525;SDS011;10421;49.142;9.232;2022-08-21T02:43:19;3.63;;;3.00;;
20525;SDS011;10421;49.142;9.232;2022-08-21T02:45:47;4.10;;;2.63;;
20525;SDS011;10421;49.142;9.232;2022-08-21T02:48:18;3.13;;;2.73;;
20525;SDS011;10421;49.142;9.232;2022-08-21T02:50:46;5.40;;;3.07;;
20525;SDS011;10421;49.142;9.232;2022-08-21T02:53:15;2.90;;;2.40;;
20525;SDS011;10421;49.142;9.232;2022-08-21T02:55:43;3.17;;;2.10;;
20525;SDS011;10421;49.142;9.232;2022-08-21T02:58:12;3.23;;;2.63;;
20525;SDS011;10421;49.142;9.232;2022-08-21T03:00:40;2.93;;;2.63;;
20525;SDS011;10421;49.142;9.232;2022-08-21T03:03:08;3.33;;;2.70;;
20525;SDS011;10421;49.142;9.232;2022-08-21T03:05:37;2.57;;;2.37;;
20525;SDS011;10421;49.142;9.232;2022-08-21T03:08:04;2.90;;;2.60;;
20525;SDS011;10421;49.142;9.232;2022-08-21T03:10:34;2.53;;;2.33;;
20525;SDS011;10421;49.142;9.232;2022-08-21T03:13:02;2.60;;;2.27;;
20525;SDS011;10421;49.142;9.232;2022-08-21T03:15:29;3.07;;;2.77;;
20525;SDS011;10421;49.142;9.232;2022-08-21T03:17:56;2.33;;;2.13;;
20525;SDS011;10421;49.142;9.232;2022-08-21T03:20:24;2.40;;;1.90;;
20525;SDS011;10421;49.142;9.232;2022-08-21T03:22:53;3.37;;;2.80;;
20525;SDS011;10421;49.142;9.232;2022-08-21T03:25:21;4.60;;;3.10;;
20525;SDS011;10421;49.142;9.232;2022-08-21T03:27:49;2.87;;;2.37;;
20525;SDS011;10421;49.142;9.232;2022-08-21T03:30:16;5.43;;;2.70;;
20525;SDS011;10421;49.142;9.232;2022-08-21T03:32:43;3.60;;;2.57;;
20525;SDS011;10421;49.142;9.232;2022-08-21T03:35:10;3.17;;;2.80;;
20525;SDS011;10421;49.142;9.232;2022-08-21T03:37:38;3.20;;;2.60;;
20525;SDS011;10421;49.142;9.232;2022-08-21T03:40:07;3.90;;;2.50;;
20525;SDS011;10421;49.142;9.232;2022-08-21T03:42:35;3.30;;;3.00;;
20525;SDS011;10421;49.142;9.232;2022-08-21T03:45:02;4.17;;;3.20;;
20525;SDS011;10421;49.142;9.232;2022-08-21T03:47:29;6.33;;;3.70;;
20525;SDS011;10421;49.142;9.232;2022-08-21T03:49:56;5.80;;;3.80;;
20525;SDS011;10421;49.142;9.232;2022-08-21T03:52:22;8.23;;;3.40;;
20525;SDS011;10421;49.142;9.232;2022-08-21T03:54:49;7.33;;;3.50;;
20525;SDS011;10421;49.142;9.232;2022-08-21T03:57:17;8.73;;;4.43;;
20525;SDS011;10421;49.142;9.232;2022-08-21T03:59:44;4.63;;;3.17;;
20525;SDS011;10421;49.142;9.232;2022-08-21T04:02:11;4.30;;;3.13;;
20525;SDS011;10421;49.142;9.232;2022-08-21T04:04:42;4.43;;;3.20;;
20525;SDS011;10421;49.142;9.232;2022-08-21T04:07:09;4.40;;;3.43;;
20525;SDS011;10421;49.142;9.232;2022-08-21T04:09:35;4.40;;;3.00;;
20525;SDS011;10421;49.142;9.232;2022-08-21T04:12:02;5.17;;;2.87;;
20525;SDS011;10421;49.142;9.232;2022-08-21T04:14:32;3.03;;;2.50;;
20525;SDS011;10421;49.142;9.232;2022-08-21T04:16:58;4.50;;;2.90;;
20525;SDS011;10421;49.142;9.232;2022-08-21T04:19:25;3.13;;;2.83;;
20525;SDS011;10421;49.142;9.232;2022-08-21T04:21:52;8.23;;;3.63;;
20525;SDS011;10421;49.142;9.232;2022-08-21T04:24:18;3.83;;;2.80;;
20525;SDS011;10421;49.142;9.232;2022-08-21T04:26:45;3.23;;;2.77;;
20525;SDS011;10421;49.142;9.232;2022-08-21T04:29:12;3.20;;;2.90;;
20525;SDS011;10421;49.142;9.232;2022-08-21T04:31:41;6.33;;;3.30;;
20525;SDS011;10421;49.142;9.232;2022-08-21T04:34:08;3.53;;;3.17;;
20525;SDS011;10421;49.142;9.232;2022-08-21T04:36:35;5.93;;;3.07;;
20525;SDS011;10421;49.142;9.232;2022-08-21T04:39:02;2.93;;;2.63;;
20525;SDS011;10421;49.142;9.232;2022-08-21T04:41:29;3.83;;;3.00;;
20525;SDS011;10421;49.142;9.232;2022-08-21T04:43:56;3.13;;;2.63;;
20525;SDS011;10421;49.142;9.232;2022-08-21T04:46:23;4.70;;;2.93;;
20525;SDS011;10421;49.142;9.232;2022-08-21T04:48:51;3.57;;;2.50;;
20525;SDS011;10421;49.142;9.232;2022-08-21T04:51:18;3.70;;;2.80;;
20525;SDS011;10421;49.142;9.232;2022-08-21T04:53:49;6.77;;;3.50;;
20525;SDS011;10421;49.142;9.232;2022-08-21T04:56:19;4.07;;;3.10;;
20525;SDS011;10421;49.142;9.232;2022-08-21T04:58:48;4.13;;;3.10;;
20525;SDS011;10421;49.142;9.232;2022-08-21T05:01:18;4.73;;;2.73;;
20525;SDS011;10421;49.142;9.232;2022-08-21T05:03:49;3.93;;;3.13;;
20525;SDS011;10421;49.142;9.232;2022-08-21T05:06:20;4.30;;;2.93;;
20525;SDS011;10421;49.142;9.232;2022-08-21T05:08:48;3.97;;;2.77;;
20525;SDS011;10421;49.142;9.232;2022-08-21T05:11:17;5.07;;;2.93;;
20525;SDS011;10421;49.142;9.232;2022-08-21T05:13:44;4.03;;;2.90;;
20525;SDS011;10421;49.142;9.232;2022-08-21T05:16:11;4.17;;;2.90;;
20525;SDS011;10421;49.142;9.232;2022-08-21T05:18:37;3.17;;;2.80;;
20525;SDS011;10421;49.142;9.232;2022-08-21T05:21:06;4.37;;;2.70;;
20525;SDS011;10421;49.142;9.232;2022-08-21T05:23:32;3.37;;;2.67;;
20525;SDS011;10421;49.142;9.232;2022-08-21T05:25:59;3.40;;;2.80;;
20525;SDS011;10421;49.142;9.232;2022-08-21T05:28:26;3.63;;;2.70;;
20525;SDS011;10421;49.142;9.232;2022-08-21T05:30:53;3.43;;;2.80;;
20525;SDS011;10421;49.142;9.232;2022-08-21T05:33:20;4.20;;;3.00;;
20525;SDS011;10421;49.142;9.232;2022-08-21T05:35:49;3.70;;;2.80;;
20525;SDS011;10421;49.142;9.232;2022-08-21T05:38:17;5.10;;;3.60;;
20525;SDS011;10421;49.142;9.232;2022-08-21T05:40:45;5.40;;;2.90;;
20525;SDS011;10421;49.142;9.232;2022-08-21T05:43:12;5.20;;;3.23;;
20525;SDS011;10421;49.142;9.232;2022-08-21T05:45:40;4.00;;;2.80;;
20525;SDS011;10421;49.142;9.232;2022-08-21T05:48:07;7.30;;;3.47;;
20525;SDS011;10421;49.142;9.232;2022-08-21T05:50:34;4.40;;;3.40;;
20525;SDS011;10421;49.142;9.232;2022-08-21T05:53:02;5.20;;;3.23;;
20525;SDS011;10421;49.142;9.232;2022-08-21T05:55:30;4.60;;;4.10;;
20525;SDS011;10421;49.142;9.232;2022-08-21T05:57:57;4.60;;;3.47;;
20525;SDS011;10421;49.142;9.232;2022-08-21T06:00:24;3.73;;;3.33;;
20525;SDS011;10421;49.142;9.232;2022-08-21T06:02:51;5.97;;;3.43;;
20525;SDS011;10421;49.142;9.232;2022-08-21T06:05:17;4.60;;;3.33;;
20525;SDS011;10421;49.142;9.232;2022-08-21T06:07:44;4.13;;;3.50;;
20525;SDS011;10421;49.142;9.232;2022-08-21T06:10:11;5.00;;;3.00;;
20525;SDS011;10421;49.142;9.232;2022-08-21T06:12:39;4.83;;;3.30;;
20525;SDS011;10421;49.142;9.232;2022-08-21T06:15:06;10.03;;;3.90;;
20525;SDS011;10421;49.142;9.232;2022-08-21T06:17:34;5.00;;;3.57;;
20525;SDS011;10421;49.142;9.232;2022-08-21T06:20:01;6.13;;;3.97;;
20525;SDS011;10421;49.142;9.232;2022-08-21T06:22:28;3.90;;;3.50;;
20525;SDS011;10421;49.142;9.232;2022-08-21T06:24:55;4.67;;;3.63;;
20525;SDS011;10421;49.142;9.232;2022-08-21T06:27:21;7.83;;;3.63;;
20525;SDS011;10421;49.142;9.232;2022-08-21T06:29:50;8.27;;;3.67;;
20525;SDS011;10421;49.142;9.232;2022-08-21T06:32:16;5.97;;;3.60;;
20525;SDS011;10421;49.142;9.232;2022-08-21T06:34:43;4.90;;;4.03;;
20525;SDS011;10421;49.142;9.232;2022-08-21T06:37:10;4.00;;;3.07;;
20525;SDS011;10421;49.142;9.232;2022-08-21T06:39:36;5.40;;;3.97;;
20525;SDS011;10421;49.142;9.232;2022-08-21T06:42:04;6.63;;;4.00;;
20525;SDS011;10421;49.142;9.232;2022-08-21T06:44:31;6.27;;;4.03;;
20525;SDS011;10421;49.142;9.232;2022-08-21T06:46:59;4.83;;;3.43;;
20525;SDS011;10421;49.142;9.232;2022-08-21T06:49:26;3.63;;;3.13;;
20525;SDS011;10421;49.142;9.232;2022-08-21T06:51:52;6.47;;;3.90;;
20525;SDS011;10421;49.142;9.232;2022-08-21T06:54:19;4.37;;;3.93;;
20525;SDS011;10421;49.142;9.232;2022-08-21T06:56:46;5.20;;;3.63;;
20525;SDS011;10421;49.142;9.232;2022-08-21T06:59:13;6.47;;;3.63;;
20525;SDS011;10421;49.142;9.232;2022-08-21T07:01:40;4.80;;;3.30;;
20525;SDS011;10421;49.142;9.232;2022-08-21T07:04:08;4.27;;;3.70;;
20525;SDS011;10421;49.142;9.232;2022-08-21T07:06:35;7.00;;;3.73;;
20525;SDS011;10421;49.142;9.232;2022-08-21T07:09:02;3.57;;;3.10;;
20525;SDS011;10421;49.142;9.232;2022-08-21T07:11:29;4.00;;;3.20;;
20525;SDS011;10421;49.142;9.232;2022-08-21T07:13:56;5.57;;;3.70;;
20525;SDS011;10421;49.142;9.232;2022-08-21T07:16:23;4.77;;;3.30;;
20525;SDS011;10421;49.142;9.232;2022-08-21T07:18:50;5.63;;;3.40;;
20525;SDS011;10421;49.142;9.232;2022-08-21T07:21:18;4.70;;;3.53;;
20525;SDS011;10421;49.142;9.232;2022-08-21T07:23:46;4.93;;;3.70;;
20525;SDS011;10421;49.142;9.232;2022-08-21T07:26:16;6.90;;;3.50;;
20525;SDS011;10421;49.142;9.232;2022-08-21T07:28:45;5.73;;;3.30;;
20525;SDS011;10421;49.142;9.232;2022-08-21T07:31:13;4.73;;;3.53;;
20525;SDS011;10421;49.142;9.232;2022-08-21T07:33:41;4.10;;;3.10;;
20525;SDS011;10421;49.142;9.232;2022-08-21T07:36:09;5.20;;;2.97;;
20525;SDS011;10421;49.142;9.232;2022-08-21T07:38:38;5.63;;;3.70;;
20525;SDS011;10421;49.142;9.232;2022-08-21T07:41:07;6.57;;;3.70;;
20525;SDS011;10421;49.142;9.232;2022-08-21T07:43:42;7.00;;;3.83;;
20525;SDS011;10421;49.142;9.232;2022-08-21T07:46:10;7.73;;;3.73;;
20525;SDS011;10421;49.142;9.232;2022-08-21T07:48:37;6.40;;;3.67;;
20525;SDS011;10421;49.142;9.232;2022-08-21T07:51:05;9.07;;;4.50;;
20525;SDS011;10421;49.142;9.232;2022-08-21T07:53:33;5.63;;;3.93;;
20525;SDS011;10421;49.142;9.232;2022-08-21T07:56:03;4.20;;;3.30;;
20525;SDS011;10421;49.142;9.232;2022-08-21T07:58:30;6.67;;;3.70;;
20525;SDS011;10421;49.142;9.232;2022-08-21T08:00:58;6.27;;;4.00;;
20525;SDS011;10421;49.142;9.232;2022-08-21T08:03:25;7.50;;;3.97;;
20525;SDS011;10421;49.142;9.232;2022-08-21T08:05:52;5.23;;;3.47;;
20525;SDS011;10421;49.142;9.232;2022-08-21T08:08:18;5.10;;;3.53;;
20525;SDS011;10421;49.142;9.232;2022-08-21T08:10:45;12.60;;;5.73;;
20525;SDS011;10421;49.142;9.232;2022-08-21T08:13:15;6.20;;;4.40;;
20525;SDS011;10421;49.142;9.232;2022-08-21T08:15:42;5.23;;;3.60;;
20525;SDS011;10421;49.142;9.232;2022-08-21T08:18:09;4.57;;;3.67;;
20525;SDS011;10421;49.142;9.232;2022-08-21T08:20:36;7.73;;;4.63;;
20525;SDS011;10421;49.142;9.232;2022-08-21T08:23:02;7.17;;;4.47;;
20525;SDS011;10421;49.142;9.232;2022-08-21T08:25:29;6.10;;;4.73;;
20525;SDS011;10421;49.142;9.232;2022-08-21T08:27:56;7.73;;;4.87;;
20525;SDS011;10421;49.142;9.232;2022-08-21T08:30:24;7.77;;;4.03;;
20525;SDS011;10421;49.142;9.232;2022-08-21T08:32:51;7.57;;;4.80;;
20525;SDS011;10421;49.142;9.232;2022-08-21T08:35:17;4.67;;;4.17;;
20525;SDS011;10421;49.142;9.232;2022-08-21T08:37:44;8.30;;;4.50;;
20525;SDS011;10421;49.142;9.232;2022-08-21T08:40:12;7.53;;;4.97;;
20525;SDS011;10421;49.142;9.232;2022-08-21T08:42:40;7.10;;;5.07;;
20525;SDS011;10421;49.142;9.232;2022-08-21T08:45:08;6.30;;;4.80;;
20525;SDS011;10421;49.142;9.232;2022-08-21T08:47:39;8.93;;;5.00;;
20525;SDS011;10421;49.142;9.232;2022-08-21T08:50:11;8.13;;;4.50;;
20525;SDS011;10421;49.142;9.232;2022-08-21T08:52:43;4.43;;;4.03;;
20525;SDS011;10421;49.142;9.232;2022-08-21T08:55:14;5.70;;;4.77;;
20525;SDS011;10421;49.142;9.232;2022-08-21T08:57:45;6.53;;;5.07;;
20525;SDS011;10421;49.142;9.232;2022-08-21T09:00:16;4.87;;;4.40;;
20525;SDS011;10421;49.142;9.232;2022-08-21T09:02:47;7.50;;;5.53;;
20525;SDS011;10421;49.142;9.232;2022-08-21T09:05:19;7.50;;;5.20;;
20525;SDS011;10421;49.142;9.232;2022-08-21T09:08:09;6.53;;;4.40;;
20525;SDS011;10421;49.142;9.232;2022-08-21T09:10:53;6.40;;;4.90;;
20525;SDS011;10421;49.142;9.232;2022-08-21T09:13:33;6.03;;;4.47;;
20525;SDS011;10421;49.142;9.232;2022-08-21T09:16:13;5.80;;;4.90;;
20525;SDS011;10421;49.142;9.232;2022-08-21T09:18:52;7.00;;;4.73;;
20525;SDS011;10421;49.142;9.232;2022-08-21T09:21:28;5.20;;;4.53;;
20525;SDS011;10421;49.142;9.232;2022-08-21T09:24:06;5.07;;;4.37;;
20525;SDS011;10421;49.142;9.232;2022-08-21T09:26:46;6.83;;;4.80;;
20525;SDS011;10421;49.142;9.232;2022-08-21T09:29:21;5.20;;;4.40;;
20525;SDS011;10421;49.142;9.232;2022-08-21T09:31:51;6.70;;;5.33;;
20525;SDS011;10421;49.142;9.232;2022-08-21T09:34:25;7.33;;;4.10;;
20525;SDS011;10421;49.142;9.232;2022-08-21T09:36:54;5.90;;;4.80;;
20525;SDS011;10421;49.142;9.232;2022-08-21T09:39:23;5.50;;;3.80;;
20525;SDS011;10421;49.142;9.232;2022-08-21T09:41:55;6.17;;;4.33;;
20525;SDS011;10421;49.142;9.232;2022-08-21T09:44:25;6.80;;;4.03;;
20525;SDS011;10421;49.142;9.232;2022-08-21T09:46:54;6.00;;;4.20;;
20525;SDS011;10421;49.142;9.232;2022-08-21T09:49:28;5.93;;;3.80;;
20525;SDS011;10421;49.142;9.232;2022-08-21T09:51:56;4.63;;;3.87;;
20525;SDS011;10421;49.142;9.232;2022-08-21T09:54:26;5.27;;;3.50;;
20525;SDS011;10421;49.142;9.232;2022-08-21T09:56:56;6.40;;;3.50;;
20525;SDS011;10421;49.142;9.232;2022-08-21T09:59:42;7.67;;;4.17;;
20525;SDS011;10421;49.142;9.232;2022-08-21T10:02:26;5.30;;;3.13;;
20525;SDS011;10421;49.142;9.232;2022-08-21T10:04:57;7.20;;;4.33;;
20525;SDS011;10421;49.142;9.232;2022-08-21T10:07:25;5.13;;;4.00;;
20525;SDS011;10421;49.142;9.232;2022-08-21T10:09:58;5.60;;;3.70;;
20525;SDS011;10421;49.142;9.232;2022-08-21T10:12:31;4.10;;;2.97;;
20525;SDS011;10421;49.142;9.232;2022-08-21T10:15:06;5.70;;;3.40;;
20525;SDS011;10421;49.142;9.232;2022-08-21T10:17:43;4.60;;;3.40;;
20525;SDS011;10421;49.142;9.232;2022-08-21T10:20:20;6.00;;;3.83;;
20525;SDS011;10421;49.142;9.232;2022-08-21T10:22:51;8.90;;;3.40;;
20525;SDS011;10421;49.142;9.232;2022-08-21T10:25:31;5.53;;;3.73;;
20525;SDS011;10421;49.142;9.232;2022-08-21T10:28:04;4.73;;;4.00;;
20525;SDS011;10421;49.142;9.232;2022-08-21T10:30:38;6.93;;;3.97;;
20525;SDS011;10421;49.142;9.232;2022-08-21T10:33:29;4.30;;;3.83;;
20525;SDS011;10421;49.142;9.232;2022-08-21T10:36:08;5.30;;;3.70;;
20525;SDS011;10421;49.142;9.232;2022-08-21T10:38:59;8.27;;;5.10;;
20525;SDS011;10421;49.142;9.232;2022-08-21T10:41:39;8.00;;;3.97;;
20525;SDS011;10421;49.142;9.232;2022-08-21T10:44:30;6.10;;;3.40;;
20525;SDS011;10421;49.142;9.232;2022-08-21T10:47:04;5.10;;;3.53;;
20525;SDS011;10421;49.142;9.232;2022-08-21T10:49:38;3.70;;;3.30;;
20525;SDS011;10421;49.142;9.232;2022-08-21T10:52:18;5.03;;;3.10;;
20525;SDS011;10421;49.142;9.232;2022-08-21T10:54:56;5.70;;;3.70;;
20525;SDS011;10421;49.142;9.232;2022-08-21T10:57:29;7.73;;;3.57;;
20525;SDS011;10421;49.142;9.232;2022-08-21T11:00:05;8.13;;;3.40;;
20525;SDS011;10421;49.142;9.232;2022-08-21T11:02:37;5.47;;;4.00;;
20525;SDS011;10421;49.142;9.232;2022-08-21T11:05:09;5.10;;;3.80;;
20525;SDS011;10421;49.142;9.232;2022-08-21T11:07:43;6.30;;;4.30;;
20525;SDS011;10421;49.142;9.232;2022-08-21T11:10:15;5.60;;;3.87;;
20525;SDS011;10421;49.142;9.232;2022-08-21T11:12:47;8.40;;;4.07;;
20525;SDS011;10421;49.142;9.232;2022-08-21T11:15:29;7.90;;;4.23;;
20525;SDS011;10421;49.142;9.232;2022-08-21T11:18:03;6.30;;;3.63;;
20525;SDS011;10421;49.142;9.232;2022-08-21T11:20:42;4.53;;;3.90;;
20525;SDS011;10421;49.142;9.232;2022-08-21T11:23:16;6.63;;;3.60;;
20525;SDS011;10421;49.142;9.232;2022-08-21T11:25:52;4.93;;;3.67;;
20525;SDS011;10421;49.142;9.232;2022-08-21T11:28:24;4.90;;;3.40;;
20525;SDS011;10421;49.142;9.232;2022-08-21T11:30:58;8.40;;;7.10;;
20525;SDS011;10421;49.142;9.232;2022-08-21T11:33:41;6.37;;;3.50;;
20525;SDS011;10421;49.142;9.232;2022-08-21T11:36:19;6.37;;;3.67;;
20525;SDS011;10421;49.142;9.232;2022-08-21T11:39:00;5.37;;;3.70;;
20525;SDS011;10421;49.142;9.232;2022-08-21T11:41:34;5.40;;;3.80;;
20525;SDS011;10421;49.142;9.232;2022-08-21T11:44:09;4.33;;;3.67;;
20525;SDS011;10421;49.142;9.232;2022-08-21T11:46:43;4.80;;;3.57;;
20525;SDS011;10421;49.142;9.232;2022-08-21T11:49:19;6.07;;;3.78;;
20525;SDS011;10421;49.142;9.232;2022-08-21T11:51:56;4.77;;;3.60;;
20525;SDS011;10421;49.142;9.232;2022-08-21T11:54:35;7.20;;;3.60;;
20525;SDS011;10421;49.142;9.232;2022-08-21T11:57:11;3.43;;;2.80;;
20525;SDS011;10421;49.142;9.232;2022-08-21T11:59:44;3.60;;;3.10;;
20525;SDS011;10421;49.142;9.232;2022-08-21T12:02:19;5.30;;;3.33;;
20525;SDS011;10421;49.142;9.232;2022-08-21T12:04:51;4.33;;;3.37;;
20525;SDS011;10421;49.142;9.232;2022-08-21T12:07:28;4.50;;;3.27;;
20525;SDS011;10421;49.142;9.232;2022-08-21T12:09:59;3.90;;;3.00;;
20525;SDS011;10421;49.142;9.232;2022-08-21T12:12:28;5.97;;;3.67;;
20525;SDS011;10421;49.142;9.232;2022-08-21T12:17:50;4.43;;;3.53;;
20525;SDS011;10421;49.142;9.232;2022-08-21T12:20:22;5.50;;;3.20;;
20525;SDS011;10421;49.142;9.232;2022-08-21T12:23:02;3.40;;;3.10;;
20525;SDS011;10421;49.142;9.232;2022-08-21T12:25:37;5.17;;;3.23;;
20525;SDS011;10421;49.142;9.232;2022-08-21T12:28:07;5.57;;;3.40;;
20525;SDS011;10421;49.142;9.232;2022-08-21T12:30:37;5.07;;;3.20;;
20525;SDS011;10421;49.142;9.232;2022-08-21T12:33:09;5.13;;;3.27;;
20525;SDS011;10421;49.142;9.232;2022-08-21T12:35:46;4.53;;;3.33;;
20525;SDS011;10421;49.142;9.232;2022-08-21T12:38:16;7.00;;;3.50;;
20525;SDS011;10421;49.142;9.232;2022-08-21T12:40:49;5.40;;;3.57;;
20525;SDS011;10421;49.142;9.232;2022-08-21T12:43:20;4.50;;;3.10;;
20525;SDS011;10421;49.142;9.232;2022-08-21T12:45:52;4.53;;;3.67;;
20525;SDS011;10421;49.142;9.232;2022-08-21T12:48:20;4.43;;;4.03;;
20525;SDS011;10421;49.142;9.232;2022-08-21T12:50:53;5.27;;;3.30;;
20525;SDS011;10421;49.142;9.232;2022-08-21T12:53:25;3.77;;;3.30;;
20525;SDS011;10421;49.142;9.232;2022-08-21T12:55:56;3.30;;;3.00;;
20525;SDS011;10421;49.142;9.232;2022-08-21T12:58:26;6.53;;;3.57;;
20525;SDS011;10421;49.142;9.232;2022-08-21T13:00:55;4.07;;;3.00;;
20525;SDS011;10421;49.142;9.232;2022-08-21T13:03:27;5.00;;;2.77;;
20525;SDS011;10421;49.142;9.232;2022-08-21T13:05:55;6.37;;;3.43;;
20525;SDS011;10421;49.142;9.232;2022-08-21T13:08:22;6.33;;;2.90;;
20525;SDS011;10421;49.142;9.232;2022-08-21T13:10:57;4.03;;;2.87;;
20525;SDS011;10421;49.142;9.232;2022-08-21T13:13:27;3.27;;;2.90;;
20525;SDS011;10421;49.142;9.232;2022-08-21T13:15:59;5.67;;;3.00;;
20525;SDS011;10421;49.142;9.232;2022-08-21T13:18:28;3.43;;;3.10;;
20525;SDS011;10421;49.142;9.232;2022-08-21T13:21:05;4.63;;;3.23;;
20525;SDS011;10421;49.142;9.232;2022-08-21T13:23:33;3.40;;;2.63;;
20525;SDS011;10421;49.142;9.232;2022-08-21T13:26:11;3.17;;;2.80;;
20525;SDS011;10421;49.142;9.232;2022-08-21T13:28:38;3.40;;;3.10;;
20525;SDS011;10421;49.142;9.232;2022-08-21T13:31:06;4.80;;;3.00;;
20525;SDS011;10421;49.142;9.232;2022-08-21T13:33:35;4.40;;;2.87;;
20525;SDS011;10421;49.142;9.232;2022-08-21T13:36:05;3.47;;;3.20;;
20525;SDS011;10421;49.142;9.232;2022-08-21T13:38:36;3.40;;;3.10;;
20525;SDS011;10421;49.142;9.232;2022-08-21T13:41:08;3.57;;;2.53;;
20525;SDS011;10421;49.142;9.232;2022-08-21T13:43:43;4.73;;;3.07;;
20525;SDS011;10421;49.142;9.232;2022-08-21T13:46:12;3.80;;;2.63;;
20525;SDS011;10421;49.142;9.232;2022-08-21T13:48:41;3.67;;;3.07;;
20525;SDS011;10421;49.142;9.232;2022-08-21T13:51:08;3.80;;;3.13;;
20525;SDS011;10421;49.142;9.232;2022-08-21T13:53:43;3.33;;;2.97;;
20525;SDS011;10421;49.142;9.232;2022-08-21T13:56:22;5.50;;;3.40;;
20525;SDS011;10421;49.142;9.232;2022-08-21T13:58:50;5.50;;;3.50;;
20525;SDS011;10421;49.142;9.232;2022-08-21T14:01:19;3.40;;;2.77;;
20525;SDS011;10421;49.142;9.232;2022-08-21T14:03:48;4.23;;;3.20;;
20525;SDS011;10421;49.142;9.232;2022-08-21T14:06:17;3.23;;;2.93;;
20525;SDS011;10421;49.142;9.232;2022-08-21T14:08:47;4.40;;;2.97;;
20525;SDS011;10421;49.142;9.232;2022-08-21T14:11:17;7.60;;;4.00;;
20525;SDS011;10421;49.142;9.232;2022-08-21T14:13:47;4.70;;;3.20;;
20525;SDS011;10421;49.142;9.232;2022-08-21T14:16:19;3.50;;;3.10;;
20525;SDS011;10421;49.142;9.232;2022-08-21T14:18:48;4.63;;;3.20;;
20525;SDS011;10421;49.142;9.232;2022-08-21T14:21:24;3.20;;;2.90;;
20525;SDS011;10421;49.142;9.232;2022-08-21T14:24:01;3.60;;;2.70;;
20525;SDS011;10421;49.142;9.232;2022-08-21T14:26:31;2.80;;;2.60;;
20525;SDS011;10421;49.142;9.232;2022-08-21T14:29:02;3.40;;;2.90;;
20525;SDS011;10421;49.142;9.232;2022-08-21T14:31:34;2.80;;;2.50;;
20525;SDS011;10421;49.142;9.232;2022-08-21T14:34:01;5.03;;;2.60;;
20525;SDS011;10421;49.142;9.232;2022-08-21T14:36:28;3.80;;;2.93;;
20525;SDS011;10421;49.142;9.232;2022-08-21T14:38:55;3.20;;;2.90;;
20525;SDS011;10421;49.142;9.232;2022-08-21T14:41:23;3.60;;;3.00;;
20525;SDS011;10421;49.142;9.232;2022-08-21T14:43:53;2.80;;;2.60;;
20525;SDS011;10421;49.142;9.232;2022-08-21T14:46:22;2.67;;;2.47;;
20525;SDS011;10421;49.142;9.232;2022-08-21T14:48:52;7.03;;;3.20;;
20525;SDS011;10421;49.142;9.232;2022-08-21T14:51:19;3.40;;;2.53;;
20525;SDS011;10421;49.142;9.232;2022-08-21T14:53:46;3.40;;;2.67;;
20525;SDS011;10421;49.142;9.232;2022-08-21T14:56:14;5.70;;;3.20;;
20525;SDS011;10421;49.142;9.232;2022-08-21T14:58:41;3.10;;;2.60;;
20525;SDS011;10421;49.142;9.232;2022-08-21T15:01:11;4.20;;;3.20;;
20525;SDS011;10421;49.142;9.232;2022-08-21T15:03:41;3.93;;;2.90;;
20525;SDS011;10421;49.142;9.232;2022-08-21T15:06:08;3.43;;;2.73;;